Time;durP1;ratioP1;P1;durP2;ratioP2;P2;SDS_P1;SDS_P2;PMS_P1;PMS_P2;Temp;Humidity;BMP_temperature;BMP_pressure;BME280_temperature;BME280_humidity;BME280_pressure;Samples;Min_cycle;Max_cycle;Signal;HPM_P1;HPM_P2
2023/05/05 00:01:45;;;;;;;5.90;3.70;;;;;;;12.99;34.18;100933.72;5017699;28;20239;-83
2023/05/05 00:04:16;;;;;;;5.23;3.00;;;;;;;12.96;34.25;100918.22;4997946;28;20208;-82
2023/05/05 00:06:51;;;;;;;5.50;3.80;;;;;;;13.01;34.51;100930.25;5002867;28;20204;-84
2023/05/05 00:09:21;;;;;;;4.87;2.93;;;;;;;13.03;34.44;100928.53;5017895;28;20199;-84
2023/05/05 00:11:57;;;;;;;5.60;3.03;;;;;;;12.94;34.23;100914.78;5018971;28;20243;-84
2023/05/05 00:14:28;;;;;;;3.83;2.83;;;;;;;13.04;34.34;100932.81;5005104;28;20622;-84
2023/05/05 00:16:57;;;;;;;7.17;3.07;;;;;;;12.91;34.55;100899.28;5019010;28;20540;-85
2023/05/05 00:19:26;;;;;;;4.67;3.03;;;;;;;13.19;34.37;100937.03;5003941;28;20306;-82
2023/05/05 00:21:56;;;;;;;4.43;2.50;;;;;;;13.22;34.41;100928.38;4999570;28;20220;-84
2023/05/05 00:24:25;;;;;;;4.63;2.93;;;;;;;13.22;34.09;100928.38;5012985;28;20379;-83
2023/05/05 00:26:54;;;;;;;4.32;3.20;;;;;;;13.26;34.46;100930.13;4985819;28;20196;-84
2023/05/05 00:29:22;;;;;;;6.67;3.20;;;;;;;13.29;34.02;100930.06;4998209;28;20207;-84
2023/05/05 00:31:54;;;;;;;4.30;2.97;;;;;;;13.33;34.20;100929.19;5014066;28;20245;-82
2023/05/05 00:34:24;;;;;;;5.17;3.43;;;;;;;13.34;34.04;100927.44;4997610;28;20204;-84
2023/05/05 00:36:52;;;;;;;4.67;2.90;;;;;;;13.35;34.20;100923.97;5015702;28;20217;-85
2023/05/05 00:39:22;;;;;;;5.53;3.63;;;;;;;13.42;34.03;100942.03;5017211;28;20214;-85
2023/05/05 00:41:50;;;;;;;5.13;3.17;;;;;;;13.41;34.00;100934.28;5013903;28;20220;-84
2023/05/05 00:44:34;;;;;;;3.55;3.10;;;;;;;13.38;33.78;100926.56;4997875;28;20279;-84
2023/05/05 00:47:03;;;;;;;4.67;3.37;;;;;;;13.29;33.66;100925.78;5010523;28;20207;-84
2023/05/05 00:49:39;;;;;;;3.97;3.57;;;;;;;13.20;34.33;100917.19;4996450;28;20655;-83
2023/05/05 00:52:10;;;;;;;5.63;3.53;;;;;;;13.12;34.33;100903.44;4997829;28;20650;-83
2023/05/05 00:54:43;;;;;;;4.30;3.17;;;;;;;13.22;34.34;100946.50;4999270;28;20307;-85
2023/05/05 00:57:16;;;;;;;5.20;3.33;;;;;;;13.21;34.99;100934.41;4999456;28;20749;-83
2023/05/05 00:59:50;;;;;;;4.80;3.30;;;;;;;13.16;34.87;100928.44;5009602;28;20569;-86
2023/05/05 01:02:22;;;;;;;3.87;3.17;;;;;;;13.18;34.60;100934.44;5019054;28;20226;-84
2023/05/05 01:04:54;;;;;;;5.27;3.33;;;;;;;13.17;34.34;100927.56;5013360;28;20207;-83
2023/05/05 01:07:32;;;;;;;5.07;3.40;;;;;;;13.16;34.64;100939.63;4999672;28;20687;-84
2023/05/05 01:10:15;;;;;;;6.97;3.57;;;;;;;13.13;34.74;100928.44;5006032;28;20258;-83
2023/05/05 01:12:54;;;;;;;4.87;3.07;;;;;;;13.18;34.93;100930.16;5010345;28;20762;-83
2023/05/05 01:15:31;;;;;;;5.50;3.43;;;;;;;13.18;35.26;100929.25;5008596;28;20246;-83
2023/05/05 01:18:07;;;;;;;5.77;3.50;;;;;;;13.15;34.98;100921.53;5012240;28;20210;-85
2023/05/05 01:20:45;;;;;;;6.50;3.77;;;;;;;13.17;35.24;100919.78;4997781;28;20549;-83
2023/05/05 01:23:33;;;;;;;5.87;3.70;;;;;;;13.12;35.30;100904.31;5014910;28;20234;-84
2023/05/05 01:26:18;;;;;;;7.03;4.00;;;;;;;13.01;35.46;100896.63;5018116;28;20628;-84
2023/05/05 01:29:21;;;;;;;7.77;3.80;;;;;;;13.10;35.55;100920.72;4989849;28;20215;-83
2023/05/05 01:31:56;;;;;;;7.10;3.70;;;;;;;13.09;35.58;100921.59;5005071;28;20206;-83
2023/05/05 01:34:31;;;;;;;6.13;4.07;;;;;;;13.03;35.91;100925.94;5013402;28;20235;-83
2023/05/05 01:37:10;;;;;;;6.27;3.93;;;;;;;12.99;35.85;100913.88;5015411;28;20283;-82
2023/05/05 01:39:40;;;;;;;4.27;3.60;;;;;;;12.97;36.12;100923.41;5000778;28;20216;-82
2023/05/05 01:42:13;;;;;;;6.23;3.77;;;;;;;12.88;36.34;100926.03;5005602;28;20569;-85
2023/05/05 01:44:43;;;;;;;6.23;4.07;;;;;;;12.77;36.53;100912.31;5020375;28;20218;-83
2023/05/05 01:47:21;;;;;;;6.47;4.20;;;;;;;12.68;36.69;100905.50;5019291;28;20263;-83
2023/05/05 01:49:52;;;;;;;5.10;4.60;;;;;;;12.57;37.02;100902.97;5018417;28;20298;-84
2023/05/05 01:52:22;;;;;;;6.30;4.20;;;;;;;12.63;37.32;100909.84;5006101;28;20207;-83
2023/05/05 01:54:53;;;;;;;7.60;3.80;;;;;;;12.42;37.43;100884.97;5008131;28;20203;-83
2023/05/05 01:57:30;;;;;;;7.27;4.60;;;;;;;12.53;37.39;100898.69;5005145;28;20693;-83
2023/05/05 01:59:59;;;;;;;6.10;4.33;;;;;;;12.57;37.63;100913.31;5019630;28;20210;-83
2023/05/05 02:02:33;;;;;;;7.80;4.20;;;;;;;12.56;37.97;100909.00;5019389;28;20301;-84
2023/05/05 02:05:03;;;;;;;6.80;4.57;;;;;;;12.44;37.84;100892.69;5013530;28;20714;-84
2023/05/05 02:07:33;;;;;;;5.50;4.40;;;;;;;12.44;38.07;100901.31;5019019;28;20219;-84
2023/05/05 02:10:08;;;;;;;7.43;4.70;;;;;;;12.44;38.29;100916.81;5020226;28;20235;-83
2023/05/05 02:12:38;;;;;;;6.90;4.33;;;;;;;12.44;37.71;100906.47;5021008;28;20323;-83
2023/05/05 02:15:11;;;;;;;7.50;4.27;;;;;;;12.46;37.98;100904.75;5010553;28;20657;-84
2023/05/05 02:17:43;;;;;;;7.43;4.60;;;;;;;12.45;37.82;100900.47;5018381;28;20203;-83
2023/05/05 02:20:14;;;;;;;5.20;4.10;;;;;;;12.45;37.90;100897.03;4993857;28;20215;-84
2023/05/05 02:22:43;;;;;;;7.93;4.07;;;;;;;12.48;37.57;100902.16;5007293;28;20609;-83
2023/05/05 02:25:16;;;;;;;6.83;3.93;;;;;;;12.46;37.98;100907.34;5001644;28;20211;-83
2023/05/05 02:27:50;;;;;;;4.80;3.70;;;;;;;12.38;37.98;100896.19;5014096;28;20238;-83
2023/05/05 02:30:22;;;;;;;3.87;3.30;;;;;;;12.47;37.99;100900.44;4994869;28;20207;-85
2023/05/05 02:33:00;;;;;;;5.23;3.43;;;;;;;12.52;37.83;100896.13;5010774;28;20216;-84
2023/05/05 02:35:35;;;;;;;5.10;3.50;;;;;;;12.52;37.44;100888.38;4995449;28;20265;-83
2023/05/05 02:38:06;;;;;;;7.10;3.93;;;;;;;12.57;37.29;100891.78;5020759;28;20239;-84
2023/05/05 02:40:35;;;;;;;4.63;3.27;;;;;;;12.43;37.42;100880.66;5020459;28;20262;-83
2023/05/05 02:43:07;;;;;;;5.03;3.60;;;;;;;12.45;37.46;100868.59;5006792;28;20216;-82
2023/05/05 02:45:36;;;;;;;4.27;3.23;;;;;;;12.56;37.09;100884.88;5000348;28;20212;-84
2023/05/05 02:48:07;;;;;;;4.40;3.40;;;;;;;12.62;36.76;100896.91;5011205;28;20199;-84
2023/05/05 02:50:38;;;;;;;5.60;3.00;;;;;;;12.64;36.50;100887.44;5019459;28;20218;-84
2023/05/05 02:53:06;;;;;;;5.00;3.07;;;;;;;12.64;36.49;100879.66;5019612;28;20630;-82
2023/05/05 02:55:42;;;;;;;6.10;2.80;;;;;;;12.61;36.42;100884.84;5019801;28;20273;-84
2023/05/05 02:58:22;;;;;;;5.53;3.00;;;;;;;12.56;36.48;100867.66;5019537;28;20214;-84
2023/05/05 03:00:59;;;;;;;5.23;3.30;;;;;;;12.67;36.58;100887.41;5020000;28;20269;-84
2023/05/05 03:03:40;;;;;;;4.33;2.83;;;;;;;12.69;36.44;100883.06;5018736;28;20302;-82
2023/05/05 03:06:14;;;;;;;3.77;2.70;;;;;;;12.53;36.45;100862.50;5009213;28;20226;-81
2023/05/05 03:08:54;;;;;;;9.97;5.67;;;;;;;12.71;36.35;100877.03;5019366;28;20270;-85
2023/05/05 03:11:27;;;;;;;5.83;3.73;;;;;;;12.72;36.14;100872.72;4998663;28;20231;-81
2023/05/05 03:14:07;;;;;;;5.07;3.37;;;;;;;12.73;36.22;100870.09;5013838;28;20214;-84
2023/05/05 03:16:36;;;;;;;4.80;3.10;;;;;;;12.78;36.28;100867.50;5018263;28;20211;-83
2023/05/05 03:19:11;;;;;;;4.10;3.30;;;;;;;12.81;35.99;100872.63;5006860;28;20638;-84
2023/05/05 03:21:41;;;;;;;4.70;3.73;;;;;;;12.90;36.04;100877.75;5018715;28;20235;-84
2023/05/05 03:24:15;;;;;;;5.90;3.40;;;;;;;12.94;35.78;100876.00;5019840;28;20203;-83
2023/05/05 03:26:45;;;;;;;5.50;3.57;;;;;;;12.94;35.72;100879.44;5004962;28;20596;-84
2023/05/05 03:29:15;;;;;;;7.87;3.23;;;;;;;12.97;35.62;100882.00;5008810;28;20623;-84
2023/05/05 03:31:44;;;;;;;4.83;3.70;;;;;;;12.93;35.76;100874.28;5016922;28;20211;-83
2023/05/05 03:34:14;;;;;;;6.40;3.47;;;;;;;12.86;35.98;100857.94;5020339;28;20243;-83
2023/05/05 03:36:46;;;;;;;5.33;3.93;;;;;;;12.96;35.77;100877.72;5020352;28;20203;-84
2023/05/05 03:39:17;;;;;;;4.47;4.03;;;;;;;12.90;35.76;100872.56;5010581;28;20204;-83
2023/05/05 03:41:47;;;;;;;6.63;3.90;;;;;;;12.84;35.44;100867.44;5013446;28;20253;-83
2023/05/05 03:44:19;;;;;;;7.77;3.97;;;;;;;12.87;35.46;100863.97;5006944;28;20270;-84
2023/05/05 03:46:47;;;;;;;6.03;3.63;;;;;;;12.92;35.56;100862.19;5004211;28;20220;-84
2023/05/05 03:49:18;;;;;;;3.73;3.30;;;;;;;13.00;35.38;100883.72;5006841;28;20203;-83
2023/05/05 03:51:47;;;;;;;8.60;3.47;;;;;;;12.87;35.45;100859.66;5017931;28;20199;-83
2023/05/05 03:54:17;;;;;;;5.00;3.10;;;;;;;13.09;35.42;100883.63;5012173;28;20228;-82
2023/05/05 03:56:45;;;;;;;6.40;3.33;;;;;;;13.12;35.21;100880.16;5011786;28;20203;-83
2023/05/05 03:59:16;;;;;;;7.23;3.83;;;;;;;13.01;35.28;100860.41;5012836;28;20596;-83
2023/05/05 04:01:45;;;;;;;6.13;3.23;;;;;;;13.18;35.19;100882.69;4998731;28;20745;-82
2023/05/05 04:04:14;;;;;;;4.63;3.17;;;;;;;13.19;35.45;100889.59;5004680;28;20642;-84
2023/05/05 04:06:45;;;;;;;3.80;2.63;;;;;;;13.26;35.10;100884.38;5000383;28;20290;-83
2023/05/05 04:09:14;;;;;;;5.83;3.13;;;;;;;13.30;35.36;100869.69;5017323;28;20230;-82
2023/05/05 04:11:43;;;;;;;5.13;3.00;;;;;;;13.38;34.99;100873.03;5007458;28;20738;-84
2023/05/05 04:14:13;;;;;;;3.77;2.83;;;;;;;13.44;35.03;100877.28;5015625;28;20726;-82
2023/05/05 04:16:45;;;;;;;6.20;3.33;;;;;;;13.39;34.89;100879.94;5008906;28;20254;-82
2023/05/05 04:19:17;;;;;;;4.77;2.97;;;;;;;13.45;35.03;100885.06;5003535;28;20291;-86
2023/05/05 04:21:49;;;;;;;3.63;2.90;;;;;;;13.48;34.96;100892.81;5018170;28;20254;-85
2023/05/05 04:24:23;;;;;;;5.00;3.17;;;;;;;13.47;35.25;100896.25;5019224;28;20656;-85
2023/05/05 04:26:52;;;;;;;5.37;3.33;;;;;;;13.45;35.35;100879.88;5013235;28;20659;-85
2023/05/05 04:29:21;;;;;;;5.07;3.70;;;;;;;13.66;35.70;100915.06;4999454;28;20258;-84
2023/05/05 04:31:52;;;;;;;11.40;4.23;;;;;;;13.69;36.31;100924.50;5018882;28;20199;-83
2023/05/05 04:34:21;;;;;;;8.90;4.40;;;;;;;13.73;36.68;100932.25;5019451;28;20199;-84
2023/05/05 04:36:52;;;;;;;9.37;4.60;;;;;;;13.73;37.19;100921.00;5005280;28;20294;-84
2023/05/05 04:39:21;;;;;;;14.87;4.70;;;;;;;13.77;37.31;100925.28;5020169;28;20214;-84
2023/05/05 04:41:50;;;;;;;8.67;4.27;;;;;;;13.89;37.17;100939.88;5002786;28;20212;-83
2023/05/05 04:44:19;;;;;;;12.07;4.97;;;;;;;13.93;38.11;100937.22;4999787;28;20220;-82
2023/05/05 04:46:48;;;;;;;13.37;5.83;;;;;;;13.77;39.67;100920.09;5000586;28;20255;-85
2023/05/05 04:49:16;;;;;;;10.40;6.00;;;;;;;13.67;40.84;100934.91;5019066;28;20218;-85
2023/05/05 04:51:45;;;;;;;14.30;6.40;;;;;;;13.68;40.91;100954.72;5019163;28;20207;-83
2023/05/05 04:54:17;;;;;;;10.05;6.53;;;;;;;13.65;41.40;100952.16;5019495;28;20207;-83
2023/05/05 04:56:48;;;;;;;8.30;6.13;;;;;;;13.41;40.88;100929.97;5018775;28;20203;-84
2023/05/05 04:59:19;;;;;;;9.10;5.83;;;;;;;13.39;41.28;100954.16;5013423;28;20203;-82
2023/05/05 05:01:49;;;;;;;8.50;6.10;;;;;;;13.37;41.22;100974.03;5013402;28;20250;-84
2023/05/05 05:04:21;;;;;;;11.73;6.53;;;;;;;13.20;41.60;100930.13;5008090;28;20627;-84
2023/05/05 05:06:52;;;;;;;8.40;6.03;;;;;;;13.29;40.86;100949.06;5000762;28;20208;-83
2023/05/05 05:09:24;;;;;;;11.77;6.03;;;;;;;13.42;40.89;100954.97;5020839;28;20631;-84
2023/05/05 05:11:56;;;;;;;11.50;6.33;;;;;;;13.39;41.12;100967.94;5020687;28;20670;-83
2023/05/05 05:14:26;;;;;;;9.83;6.60;;;;;;;13.29;41.22;100963.72;5006399;28;20599;-85
2023/05/05 05:16:56;;;;;;;11.60;6.70;;;;;;;12.96;41.20;100939.78;5023628;28;20266;-85
2023/05/05 05:19:25;;;;;;;10.43;6.53;;;;;;;13.02;41.48;100972.50;5007308;28;20596;-83
2023/05/05 05:21:56;;;;;;;11.13;6.87;;;;;;;12.92;40.89;100968.25;5009129;28;20218;-84
2023/05/05 05:24:26;;;;;;;9.67;6.10;;;;;;;13.00;41.18;100969.94;5008562;28;20219;-82
2023/05/05 05:26:54;;;;;;;11.07;5.87;;;;;;;13.12;40.64;100965.56;4993747;28;20227;-84
2023/05/05 05:29:23;;;;;;;7.07;5.20;;;;;;;13.10;40.50;100969.88;5021757;28;20234;-84
2023/05/05 05:31:54;;;;;;;11.50;6.20;;;;;;;12.99;40.53;100941.47;5020523;28;20208;-85
2023/05/05 05:34:22;;;;;;;9.93;5.83;;;;;;;13.27;40.16;100965.47;5013381;28;20210;-84
2023/05/05 05:36:56;;;;;;;10.07;5.53;;;;;;;13.56;39.75;100982.50;5022658;28;20658;-84
2023/05/05 05:39:30;;;;;;;7.73;5.10;;;;;;;13.89;38.34;100956.25;5011333;28;20203;-85
2023/05/05 05:41:58;;;;;;;12.80;5.40;;;;;;;14.19;37.53;100928.28;5015188;28;20211;-84
2023/05/05 05:44:27;;;;;;;9.57;4.90;;;;;;;15.04;36.50;100952.19;5001837;28;20228;-83
2023/05/05 05:46:56;;;;;;;9.03;5.07;;;;;;;16.40;34.22;100960.16;5019612;28;20233;-84
2023/05/05 05:49:25;;;;;;;9.73;5.20;;;;;;;17.58;31.95;100956.56;5022705;28;20261;-84
2023/05/05 05:51:57;;;;;;;10.15;6.07;;;;;;;18.85;29.66;100955.59;5009321;28;20663;-86
2023/05/05 05:54:25;;;;;;;8.73;4.63;;;;;;;19.95;27.80;100957.16;5022018;28;20229;-86
2023/05/05 05:56:58;;;;;;;7.55;5.10;;;;;;;21.13;25.94;100949.19;5022411;28;20207;-84
2023/05/05 05:59:27;;;;;;;7.78;5.68;;;;;;;22.17;24.02;100942.16;5021677;28;20222;-85
2023/05/05 06:02:00;;;;;;;10.18;4.95;;;;;;;23.04;22.81;100930.16;5007679;28;20204;-85
2023/05/05 06:04:30;;;;;;;7.38;5.25;;;;;;;23.77;21.95;100944.00;5019964;28;20220;-85
2023/05/05 06:07:00;;;;;;;9.05;6.00;;;;;;;24.05;21.10;100937.31;5016882;28;20208;-84
2023/05/05 06:09:29;;;;;;;6.90;4.82;;;;;;;24.39;20.69;100944.25;5003422;28;20251;-84
2023/05/05 06:12:11;;;;;;;14.43;4.72;;;;;;;24.39;20.41;100952.16;5003538;28;20236;-85
2023/05/05 06:14:39;;;;;;;9.60;5.07;;;;;;;24.08;20.69;100959.06;4989285;28;20214;-84
2023/05/05 06:17:10;;;;;;;9.63;4.28;;;;;;;23.98;21.07;100947.31;5016464;28;20215;-87
2023/05/05 06:19:40;;;;;;;8.40;5.22;;;;;;;24.23;21.18;100938.06;5023220;28;20219;-86
2023/05/05 06:22:10;;;;;;;9.95;4.55;;;;;;;24.64;20.39;100929.72;5023197;28;20203;-86
2023/05/05 06:24:38;;;;;;;11.30;4.28;;;;;;;24.67;19.74;100946.22;5020539;28;20258;-84
2023/05/05 06:27:13;;;;;;;6.63;4.20;;;;;;;24.94;19.80;100938.53;5022051;28;20231;-85
2023/05/05 06:29:48;;;;;;;6.22;4.10;;;;;;;24.95;19.70;100950.75;5008298;28;20196;-87
2023/05/05 06:32:17;;;;;;;7.35;4.07;;;;;;;24.96;19.77;100943.69;5014634;28;20210;-85
2023/05/05 06:34:47;;;;;;;8.35;4.28;;;;;;;25.72;19.73;100948.94;5003452;28;20208;-84
2023/05/05 06:37:18;;;;;;;4.82;3.45;;;;;;;26.24;18.40;100932.53;5020970;28;20214;-84
2023/05/05 06:39:48;;;;;;;6.53;3.40;;;;;;;26.58;17.94;100948.94;5007857;28;20211;-84
2023/05/05 06:42:18;;;;;;;5.85;3.60;;;;;;;26.61;17.15;100946.09;5015146;28;20216;-86
2023/05/05 06:44:47;;;;;;;5.82;3.58;;;;;;;26.44;17.37;100952.44;5001670;28;20275;-85
2023/05/05 06:47:16;;;;;;;8.25;3.50;;;;;;;26.58;17.41;100954.22;5001839;28;20229;-85
2023/05/05 06:49:47;;;;;;;7.97;3.63;;;;;;;27.21;17.34;100958.91;5013909;28;20202;-84
2023/05/05 06:52:25;;;;;;;8.02;3.75;;;;;;;27.90;16.55;100963.03;5017830;28;20208;-84
2023/05/05 06:54:55;;;;;;;4.60;3.22;;;;;;;28.40;16.13;100945.41;5003981;28;20591;-86
2023/05/05 06:57:26;;;;;;;5.78;3.38;;;;;;;28.83;15.54;100958.19;5009702;28;20203;-84
2023/05/05 06:59:55;;;;;;;5.10;3.30;;;;;;;29.49;15.13;100939.97;5024777;28;20226;-85
2023/05/05 07:02:25;;;;;;;7.05;3.13;;;;;;;30.62;14.34;100951.47;5010370;28;20207;-84
2023/05/05 07:04:58;;;;;;;4.38;3.15;;;;;;;31.02;14.07;100967.72;5018794;28;20239;-86
2023/05/05 07:07:31;;;;;;;6.75;2.78;;;;;;;30.58;13.51;100950.03;5024220;28;20196;-88
2023/05/05 07:10:06;;;;;;;6.63;3.20;;;;;;;30.24;13.87;100959.91;5017772;28;20253;-84
2023/05/05 07:12:49;;;;;;;4.47;2.72;;;;;;;29.85;14.46;100960.22;5011019;28;20246;-85
2023/05/05 07:15:20;;;;;;;5.00;3.13;;;;;;;29.57;15.13;100960.66;5024861;28;20233;-85
2023/05/05 07:18:00;;;;;;;4.65;3.63;;;;;;;29.35;15.05;100933.09;5021769;28;20627;-88
2023/05/05 07:20:31;;;;;;;5.32;3.17;;;;;;;29.44;15.13;100950.13;5006922;28;20201;-86
2023/05/05 07:23:03;;;;;;;8.02;3.22;;;;;;;29.41;14.79;100960.13;5017045;28;20199;-85
2023/05/05 07:25:32;;;;;;;4.43;2.88;;;;;;;29.42;14.69;100956.50;5011941;28;20231;-85
2023/05/05 07:28:05;;;;;;;6.10;3.55;;;;;;;29.41;14.62;100973.41;5009594;28;20195;-85
2023/05/05 07:30:33;;;;;;;5.63;3.55;;;;;;;29.22;14.65;100956.19;5011230;28;20214;-87
2023/05/05 07:33:05;;;;;;;6.97;3.25;;;;;;;29.54;14.71;100966.19;5009745;28;20216;-87
2023/05/05 07:35:39;;;;;;;5.47;3.00;;;;;;;29.67;14.12;100956.34;5016885;28;20196;-85
2023/05/05 07:38:09;;;;;;;5.07;3.40;;;;;;;29.74;14.31;100967.34;5019191;28;20204;-85
2023/05/05 07:40:38;;;;;;;5.82;3.47;;;;;;;29.00;14.70;100966.75;5003449;28;20290;-86
2023/05/05 07:43:08;;;;;;;7.00;3.70;;;;;;;28.32;15.44;100982.19;5002214;28;20613;-85
2023/05/05 07:45:46;;;;;;;5.45;3.35;;;;;;;27.68;16.33;100981.34;4995169;28;20218;-86
2023/05/05 07:48:27;;;;;;;3.67;3.20;;;;;;;26.90;16.93;100963.56;5012281;28;20191;-86
2023/05/05 07:50:57;;;;;;;7.82;4.07;;;;;;;26.52;18.08;100963.41;4987588;28;20232;-86
2023/05/05 07:53:25;;;;;;;5.78;3.28;;;;;;;26.35;17.85;100984.72;4998836;28;20682;-86
2023/05/05 07:55:56;;;;;;;6.47;3.83;;;;;;;26.24;17.97;100982.75;5001473;28;20227;-86
2023/05/05 07:58:27;;;;;;;8.48;3.75;;;;;;;26.14;17.87;100973.69;5000846;28;20207;-85
2023/05/05 08:00:55;;;;;;;8.00;3.40;;;;;;;25.83;17.90;100949.16;4988673;28;20215;-87
2023/05/05 08:03:25;;;;;;;6.72;3.60;;;;;;;26.34;17.65;100957.44;5015002;28;20226;-85
2023/05/05 08:05:55;;;;;;;3.85;3.53;;;;;;;26.65;18.01;100972.22;5007200;28;20234;-84
2023/05/05 08:08:25;;;;;;;5.93;3.85;;;;;;;26.42;17.94;100965.72;5025473;28;20647;-87
2023/05/05 08:10:56;;;;;;;6.78;3.85;;;;;;;26.08;18.05;100971.44;5005241;28;20302;-85
2023/05/05 08:13:30;;;;;;;6.05;3.35;;;;;;;25.11;19.23;100963.94;5017018;28;20635;-86
2023/05/05 08:16:04;;;;;;;6.57;3.80;;;;;;;24.57;20.20;100972.22;5010996;28;20206;-87
2023/05/05 08:18:38;;;;;;;6.90;3.75;;;;;;;24.02;20.96;100984.84;5013580;28;20552;-87
2023/05/05 08:21:09;;;;;;;5.47;3.47;;;;;;;23.49;22.18;100991.94;5004604;28;20219;-85
2023/05/05 08:23:38;;;;;;;7.07;3.70;;;;;;;22.93;22.91;100992.06;5024554;28;20215;-86
2023/05/05 08:26:09;;;;;;;6.20;3.60;;;;;;;22.47;23.45;100988.94;5010040;28;20232;-85
2023/05/05 08:28:39;;;;;;;4.65;3.60;;;;;;;22.16;23.48;100991.16;5010235;28;20214;-84
2023/05/05 08:31:08;;;;;;;6.18;4.03;;;;;;;21.77;24.01;100993.75;5024062;28;20238;-85
2023/05/05 08:33:41;;;;;;;6.03;3.40;;;;;;;21.16;24.32;100998.88;5007570;28;20270;-85
2023/05/05 08:36:16;;;;;;;5.00;3.50;;;;;;;20.52;25.43;100999.63;5009719;28;20272;-86
2023/05/05 08:38:47;;;;;;;3.40;3.10;;;;;;;20.00;26.23;100980.56;5023141;28;20246;-84
2023/05/05 08:41:18;;;;;;;6.90;3.63;;;;;;;19.81;26.12;100963.78;5017369;28;20207;-87
2023/05/05 08:43:51;;;;;;;5.88;3.17;;;;;;;19.78;25.90;100977.84;5006111;28;20208;-86
2023/05/05 08:46:22;;;;;;;5.18;3.08;;;;;;;20.05;26.42;100999.56;5015091;28;20322;-85
2023/05/05 08:48:55;;;;;;;11.00;3.58;;;;;;;20.10;26.04;100984.53;5005147;28;20199;-86
2023/05/05 08:51:31;;;;;;;5.43;3.03;;;;;;;20.00;25.81;100981.41;5003722;28;20219;-85
2023/05/05 08:54:05;;;;;;;6.75;3.40;;;;;;;19.95;25.73;100977.22;5002118;28;20620;-88
2023/05/05 08:56:41;;;;;;;5.60;3.08;;;;;;;19.95;26.06;100987.69;5016545;28;20340;-87
2023/05/05 08:59:14;;;;;;;5.05;3.58;;;;;;;19.52;25.90;100978.72;5009301;28;20214;-86
2023/05/05 09:01:47;;;;;;;6.60;3.45;;;;;;;19.41;26.59;101017.41;5009927;28;20207;-86
2023/05/05 09:04:22;;;;;;;9.65;3.50;;;;;;;19.07;27.02;101002.78;5003175;28;20204;-86
2023/05/05 09:06:59;;;;;;;7.50;3.15;;;;;;;18.80;27.16;100986.22;5011167;28;20207;-85
2023/05/05 09:09:30;;;;;;;5.57;3.42;;;;;;;18.57;26.80;100963.41;5008469;28;20203;-85
2023/05/05 09:12:02;;;;;;;7.90;3.72;;;;;;;18.56;27.14;100966.91;5010391;28;20307;-85
2023/05/05 09:14:33;;;;;;;4.07;3.00;;;;;;;18.95;27.16;100977.06;5015235;28;20211;-84
2023/05/05 09:17:03;;;;;;;4.15;2.63;;;;;;;19.39;26.61;101008.75;5002640;28;20192;-87
2023/05/05 09:19:56;;;;;;;3.88;2.83;;;;;;;19.62;26.38;100990.56;5005875;28;20222;-85
2023/05/05 09:22:35;;;;;;;5.07;2.78;;;;;;;19.98;26.15;100988.44;5012408;28;20211;-87
2023/05/05 09:25:05;;;;;;;4.60;2.60;;;;;;;20.55;25.86;100996.03;5007729;28;20231;-85
2023/05/05 09:27:41;;;;;;;3.20;2.58;;;;;;;21.03;24.91;100964.47;5009398;28;20629;-84
2023/05/05 09:30:16;;;;;;;4.05;2.63;;;;;;;21.94;24.84;100983.38;5001432;28;20761;-85
2023/05/05 09:32:47;;;;;;;2.83;2.45;;;;;;;22.27;24.19;100988.06;5015169;28;20657;-85
2023/05/05 09:35:18;;;;;;;6.13;2.83;;;;;;;21.87;24.22;100981.06;5007955;28;20204;-84
2023/05/05 09:37:47;;;;;;;6.20;2.55;;;;;;;21.71;25.00;101000.09;5010461;28;20303;-86
2023/05/05 09:40:19;;;;;;;6.97;2.60;;;;;;;22.51;24.36;100980.84;5019880;28;20207;-86
2023/05/05 09:42:48;;;;;;;3.65;2.40;;;;;;;23.54;22.92;100958.34;5011870;28;20296;-84
2023/05/05 09:45:29;;;;;;;9.77;2.80;;;;;;;24.82;20.93;100976.16;5006102;28;20714;-85
2023/05/05 09:48:05;;;;;;;4.50;2.88;;;;;;;24.91;20.33;101001.97;5009999;28;20236;-85
2023/05/05 09:50:43;;;;;;;4.13;2.17;;;;;;;23.75;22.00;100998.53;5005484;28;20698;-85
2023/05/05 09:53:12;;;;;;;5.07;2.47;;;;;;;22.93;22.78;100992.91;5016936;28;20638;-85
2023/05/05 09:55:53;;;;;;;7.15;2.42;;;;;;;22.60;23.66;100975.16;5005895;28;20211;-85
2023/05/05 09:58:24;;;;;;;5.55;2.35;;;;;;;23.38;23.28;100973.16;5004479;28;20208;-86
2023/05/05 10:00:55;;;;;;;4.10;2.30;;;;;;;24.10;22.29;100988.78;5022019;28;20191;-86
2023/05/05 10:03:30;;;;;;;5.05;2.88;;;;;;;24.81;21.23;100982.31;5023768;28;20220;-86
2023/05/05 10:06:03;;;;;;;4.88;2.35;;;;;;;26.19;20.51;100984.84;4995849;28;20220;-89
2023/05/05 10:08:33;;;;;;;4.57;2.40;;;;;;;27.07;19.38;100966.91;5003138;28;20219;-85
2023/05/05 10:11:11;;;;;;;7.75;2.67;;;;;;;27.41;19.30;100981.41;5025334;28;20265;-86
2023/05/05 10:13:47;;;;;;;5.10;2.50;;;;;;;27.09;18.94;100939.38;5013218;28;20212;-85
2023/05/05 10:16:19;;;;;;;5.18;2.42;;;;;;;27.14;19.58;100990.25;4998444;28;20688;-84
2023/05/05 10:18:49;;;;;;;3.05;1.90;;;;;;;26.39;19.97;100962.44;5013043;28;20196;-86
2023/05/05 10:21:21;;;;;;;7.95;2.35;;;;;;;25.51;21.00;100975.66;5005458;28;20208;-85
2023/05/05 10:23:59;;;;;;;2.97;2.15;;;;;;;24.99;21.84;100978.66;5023375;28;20673;-84
2023/05/05 10:26:31;;;;;;;4.00;2.38;;;;;;;25.17;21.64;100971.50;5021702;28;20223;-85
2023/05/05 10:29:07;;;;;;;3.40;2.13;;;;;;;25.57;21.46;100984.16;5011535;28;20202;-85
2023/05/05 10:31:46;;;;;;;5.32;2.10;;;;;;;26.09;20.81;100975.78;5009776;28;20290;-86
2023/05/05 10:34:23;;;;;;;2.95;2.00;;;;;;;26.77;20.26;100967.97;5004008;28;20208;-84
2023/05/05 10:36:52;;;;;;;6.25;2.15;;;;;;;27.13;19.76;100982.41;5023244;28;20210;-83
2023/05/05 10:39:22;;;;;;;3.60;2.03;;;;;;;27.03;19.83;100968.03;5022644;28;20203;-86
2023/05/05 10:41:52;;;;;;;2.72;1.80;;;;;;;27.14;19.34;100971.72;5020064;28;20212;-84
2023/05/05 10:44:25;;;;;;;3.65;1.80;;;;;;;27.26;19.50;100972.72;5005347;28;20287;-85
2023/05/05 10:47:04;;;;;;;3.67;2.35;;;;;;;27.04;19.48;100944.16;5009178;28;20231;-85
2023/05/05 10:49:40;;;;;;;3.55;2.10;;;;;;;26.75;19.43;100932.84;5018140;28;20195;-86
2023/05/05 10:52:18;;;;;;;3.95;2.47;;;;;;;26.40;20.25;100954.44;5023941;28;20570;-88
2023/05/05 10:54:56;;;;;;;5.72;2.05;;;;;;;25.76;21.23;100982.13;5012874;28;20222;-87
2023/05/05 10:57:29;;;;;;;5.55;2.25;;;;;;;25.34;21.27;100988.16;5021366;28;20211;-85
2023/05/05 10:59:58;;;;;;;5.10;2.08;;;;;;;24.89;22.19;100980.13;5022137;28;20581;-86
2023/05/05 11:02:30;;;;;;;5.53;2.03;;;;;;;24.18;23.10;100979.63;5004502;28;20216;-84
2023/05/05 11:05:16;;;;;;;3.65;1.77;;;;;;;23.95;24.01;100984.31;5003512;28;20208;-85
2023/05/05 11:07:52;;;;;;;5.18;1.83;;;;;;;23.35;24.30;100965.47;5008812;28;20258;-83
2023/05/05 11:10:22;;;;;;;3.13;1.95;;;;;;;23.00;25.39;100978.53;5008542;28;20234;-85
2023/05/05 11:13:23;;;;;;;4.63;1.85;;;;;;;22.36;26.09;100963.19;5008572;28;20674;-85
2023/05/05 11:15:56;;;;;;;5.13;2.40;;;;;;;22.09;26.73;100959.97;4944807;29;20202;-84
2023/05/05 11:18:37;;;;;;;3.38;2.00;;;;;;;22.13;27.01;100980.78;4942147;29;20210;-86
2023/05/05 11:21:17;;;;;;;6.68;2.17;;;;;;;22.12;27.05;100980.84;4957775;29;20216;-86
2023/05/05 11:23:52;;;;;;;3.63;1.85;;;;;;;21.70;27.42;100987.91;4951186;29;20249;-85
2023/05/05 11:26:51;;;;;;;3.63;2.05;;;;;;;21.48;27.75;100983.63;4946186;29;20280;-84
2023/05/05 11:29:20;;;;;;;4.07;2.05;;;;;;;21.25;28.17;100974.94;4953134;29;20206;-85
2023/05/05 11:32:16;;;;;;;2.03;1.63;;;;;;;20.71;28.43;100999.78;5008432;28;20254;-84
2023/05/05 11:34:50;;;;;;;3.05;2.00;;;;;;;19.86;30.10;100983.66;5016535;28;20682;-84
2023/05/05 11:37:23;;;;;;;4.22;2.10;;;;;;;19.36;31.09;100983.56;5022500;28;20207;-84
2023/05/05 11:40:02;;;;;;;5.60;2.50;;;;;;;18.99;31.86;100960.38;5008521;28;20215;-84
2023/05/05 11:42:30;;;;;;;3.60;2.25;;;;;;;19.17;31.54;101004.22;5012978;28;20207;-86
2023/05/05 11:45:00;;;;;;;3.80;1.67;;;;;;;19.21;31.50;100987.53;5003058;28;20219;-85
2023/05/05 11:47:30;;;;;;;9.38;2.40;;;;;;;19.09;32.10;100995.78;5013350;28;20240;-84
2023/05/05 11:50:20;;;;;;;5.43;2.17;;;;;;;18.98;32.23;100996.13;5015274;28;20195;-86